createdAt,value
2022-09-21T00:01:18.740Z,3.63
2022-09-21T00:03:45.858Z,3.65
2022-09-21T00:06:17.246Z,3.90
2022-09-21T00:08:44.443Z,3.47
2022-09-21T00:11:15.193Z,3.30
2022-09-21T00:13:42.389Z,3.17
2022-09-21T00:16:10.385Z,3.13
2022-09-21T00:18:37.630Z,2.95
2022-09-21T00:21:08.987Z,2.65
2022-09-21T00:23:36.484Z,2.70
2022-09-21T00:26:10.752Z,3.05
2022-09-21T00:28:37.982Z,3.72
2022-09-21T00:31:05.640Z,2.60
2022-09-21T00:33:32.931Z,2.67
2022-09-21T00:36:07.324Z,2.83
2022-09-21T00:38:34.442Z,2.35
2022-09-21T00:41:01.345Z,2.50
2022-09-21T00:43:28.373Z,2.85
2022-09-21T00:46:00.551Z,2.95
2022-09-21T00:48:28.183Z,2.67
2022-09-21T00:50:55.654Z,2.92
2022-09-21T00:53:22.910Z,2.95
2022-09-21T00:55:52.235Z,2.58
2022-09-21T00:58:21.115Z,2.78
2022-09-21T01:00:48.240Z,2.70
2022-09-21T01:03:17.374Z,3.20
2022-09-21T01:05:44.284Z,2.90
2022-09-21T01:08:12.490Z,2.88
2022-09-21T01:11:25.743Z,3.00
2022-09-21T01:14:20.313Z,2.97
2022-09-21T01:17:14.961Z,3.10
2022-09-21T01:19:58.965Z,3.88
2022-09-21T01:25:32.340Z,2.65
2022-09-21T01:28:18.068Z,2.80
2022-09-21T01:30:48.960Z,3.88
2022-09-21T01:33:20.681Z,2.92
2022-09-21T01:35:49.459Z,3.30
2022-09-21T01:38:20.031Z,2.83
2022-09-21T01:40:50.480Z,2.83
2022-09-21T01:43:25.510Z,2.88
2022-09-21T01:45:54.770Z,3.05
2022-09-21T01:48:22.513Z,3.03
2022-09-21T01:50:54.308Z,2.97
2022-09-21T01:53:37.507Z,2.60
2022-09-21T01:56:12.030Z,3.17
2022-09-21T01:59:08.843Z,2.70
2022-09-21T02:01:38.764Z,3.63
2022-09-21T02:04:09.628Z,5.93
2022-09-21T02:06:36.636Z,5.03
2022-09-21T02:09:03.595Z,4.93
2022-09-21T02:11:30.520Z,4.95
2022-09-21T02:13:57.471Z,4.63
2022-09-21T02:16:39.805Z,3.78
2022-09-21T02:19:44.300Z,4.47
2022-09-21T02:22:18.908Z,3.33
2022-09-21T02:24:48.152Z,3.22
2022-09-21T02:27:24.409Z,3.38
2022-09-21T02:29:52.917Z,3.30
2022-09-21T02:32:28.930Z,3.35
2022-09-21T02:35:04.131Z,2.95
2022-09-21T02:38:18.260Z,3.25
2022-09-21T02:40:54.197Z,2.83
2022-09-21T02:43:39.406Z,3.65
2022-09-21T02:46:12.463Z,3.47
2022-09-21T02:48:43.415Z,3.50
2022-09-21T02:51:12.046Z,3.33
2022-09-21T02:53:39.130Z,3.28
2022-09-21T02:56:07.514Z,3.22
2022-09-21T02:58:36.293Z,3.47
2022-09-21T03:01:08.799Z,3.22
2022-09-21T03:03:35.960Z,3.03
2022-09-21T03:06:03.175Z,3.58
2022-09-21T03:08:30.613Z,3.05
2022-09-21T03:10:57.984Z,2.80
2022-09-21T03:13:25.051Z,2.75
2022-09-21T03:16:04.999Z,2.92
2022-09-21T03:18:32.065Z,2.95
2022-09-21T03:20:59.249Z,3.45
2022-09-21T03:23:26.192Z,3.20
2022-09-21T03:25:53.115Z,2.65
2022-09-21T03:28:20.177Z,3.15
2022-09-21T03:30:48.798Z,3.08
2022-09-21T03:33:16.198Z,2.85
2022-09-21T03:35:43.218Z,3.45
2022-09-21T03:38:10.199Z,2.50
2022-09-21T03:40:37.182Z,2.50
2022-09-21T03:43:04.198Z,2.25
2022-09-21T03:45:31.076Z,2.80
2022-09-21T03:47:58.491Z,3.63
2022-09-21T03:50:26.607Z,3.03
2022-09-21T03:52:53.548Z,2.50
2022-09-21T03:55:20.517Z,3.30
2022-09-21T03:57:48.218Z,2.55
2022-09-21T04:00:15.349Z,3.17
2022-09-21T04:02:42.569Z,3.15
2022-09-21T04:05:10.625Z,2.67
2022-09-21T04:07:37.987Z,2.80
2022-09-21T04:10:06.172Z,3.00
2022-09-21T04:12:34.836Z,2.67
2022-09-21T04:15:02.086Z,2.58
2022-09-21T04:17:29.520Z,2.53
2022-09-21T04:19:56.889Z,2.95
2022-09-21T04:22:25.018Z,2.75
2022-09-21T04:24:52.178Z,3.38
2022-09-21T04:27:19.149Z,2.70
2022-09-21T04:29:46.108Z,3.58
2022-09-21T04:32:12.981Z,2.85
2022-09-21T04:34:40.336Z,2.97
2022-09-21T04:37:11.985Z,2.67
2022-09-21T04:39:38.932Z,2.47
2022-09-21T04:42:06.204Z,2.55
2022-09-21T04:44:33.192Z,2.63
2022-09-21T04:47:00.501Z,2.92
2022-09-21T04:49:27.541Z,2.70
2022-09-21T04:51:54.443Z,2.85
2022-09-21T04:54:21.472Z,2.90
2022-09-21T04:56:48.387Z,2.97
2022-09-21T04:59:15.344Z,3.15
2022-09-21T05:01:42.311Z,3.30
2022-09-21T05:04:09.298Z,2.67
2022-09-21T05:06:36.162Z,3.92
2022-09-21T05:09:21.796Z,3.50
2022-09-21T05:11:48.745Z,4.13
2022-09-21T05:14:15.752Z,3.67
2022-09-21T05:16:42.940Z,2.92
2022-09-21T05:19:09.833Z,3.15
2022-09-21T05:21:37.274Z,3.65
2022-09-21T05:24:04.397Z,4.00
2022-09-21T05:26:31.320Z,4.03
2022-09-21T05:28:58.655Z,3.50
2022-09-21T05:31:44.536Z,4.18
2022-09-21T05:34:38.369Z,3.75
2022-09-21T05:37:13.272Z,3.78
2022-09-21T05:39:40.912Z,3.67
2022-09-21T05:42:10.496Z,3.58
2022-09-21T05:44:37.778Z,3.28
2022-09-21T05:47:13.296Z,3.00
2022-09-21T05:49:59.803Z,4.10
2022-09-21T05:52:39.949Z,3.38
2022-09-21T05:55:35.591Z,3.80
2022-09-21T05:58:10.478Z,3.35
2022-09-21T06:00:47.955Z,3.55
2022-09-21T06:03:23.955Z,4.28
2022-09-21T06:05:51.228Z,2.92
2022-09-21T06:08:18.176Z,3.22
2022-09-21T06:10:45.493Z,3.60
2022-09-21T06:13:12.399Z,3.72
2022-09-21T06:15:39.436Z,3.65
2022-09-21T06:18:07.079Z,2.78
2022-09-21T06:20:34.130Z,2.70
2022-09-21T06:23:09.007Z,3.08
2022-09-21T06:25:35.977Z,3.00
2022-09-21T06:28:05.885Z,3.08
2022-09-21T06:30:34.739Z,2.88
2022-09-21T06:33:02.338Z,3.03
2022-09-21T06:35:29.571Z,2.67
2022-09-21T06:38:06.895Z,2.80
2022-09-21T06:40:35.337Z,2.55
2022-09-21T06:43:02.738Z,2.05
2022-09-21T06:45:30.197Z,1.80
2022-09-21T06:47:57.205Z,2.05
2022-09-21T06:50:24.255Z,2.00
2022-09-21T06:52:51.532Z,2.20
2022-09-21T06:55:18.600Z,1.60
2022-09-21T06:57:45.728Z,1.40
2022-09-21T07:00:15.705Z,2.00
2022-09-21T07:02:44.688Z,2.00
2022-09-21T07:05:12.388Z,1.52
2022-09-21T07:07:40.583Z,1.70
2022-09-21T07:10:12.385Z,1.27
2022-09-21T07:12:41.933Z,1.42
2022-09-21T07:15:10.518Z,1.63
2022-09-21T07:17:39.897Z,1.52
2022-09-21T07:20:08.489Z,1.17
2022-09-21T07:22:35.694Z,1.50
2022-09-21T07:25:04.459Z,1.55
2022-09-21T07:27:31.914Z,1.70
2022-09-21T07:29:58.843Z,1.35
2022-09-21T07:32:28.616Z,1.52
2022-09-21T07:34:57.247Z,1.35
2022-09-21T07:37:27.509Z,1.48
2022-09-21T07:39:54.936Z,1.40
2022-09-21T07:42:22.926Z,1.30
2022-09-21T07:44:51.043Z,1.90
2022-09-21T07:47:19.581Z,1.65
2022-09-21T07:49:47.256Z,1.67
2022-09-21T07:52:15.632Z,1.50
2022-09-21T07:54:42.638Z,1.60
2022-09-21T07:57:27.920Z,1.60
2022-09-21T07:59:58.501Z,1.27
2022-09-21T08:02:25.642Z,1.48
2022-09-21T08:04:53.749Z,1.50
2022-09-21T08:07:20.774Z,1.35
2022-09-21T08:09:49.588Z,1.40
2022-09-21T08:12:18.868Z,1.40
2022-09-21T08:14:45.943Z,1.00
2022-09-21T08:17:12.944Z,1.02
2022-09-21T08:19:40.023Z,1.20
2022-09-21T08:22:08.523Z,1.13
2022-09-21T08:24:36.062Z,1.10
2022-09-21T08:27:05.477Z,1.15
2022-09-21T08:29:32.423Z,1.05
2022-09-21T08:31:59.475Z,0.80
2022-09-21T08:34:26.646Z,1.02
2022-09-21T08:36:55.742Z,0.88
2022-09-21T08:39:24.139Z,1.17
2022-09-21T08:45:31.392Z,1.10
2022-09-21T08:47:59.204Z,0.88
2022-09-21T08:50:39.793Z,1.02
2022-09-21T08:53:18.611Z,0.82
2022-09-21T08:55:45.693Z,0.98
2022-09-21T08:58:23.544Z,1.38
2022-09-21T09:01:15.841Z,1.20
2022-09-21T09:04:11.971Z,1.50
2022-09-21T09:06:42.727Z,1.02
2022-09-21T09:09:28.582Z,1.08
2022-09-21T09:12:21.879Z,1.60
2022-09-21T09:18:29.185Z,0.98
2022-09-21T09:21:09.965Z,1.00
2022-09-21T09:23:41.905Z,1.15
2022-09-21T09:26:14.418Z,1.00
2022-09-21T09:29:26.433Z,1.70
2022-09-21T09:32:05.051Z,1.13
2022-09-21T09:34:35.593Z,1.10
2022-09-21T09:37:21.175Z,0.98
2022-09-21T09:39:54.448Z,1.40
2022-09-21T09:42:52.725Z,1.15
2022-09-21T09:45:55.761Z,1.48
2022-09-21T09:48:29.070Z,0.82
2022-09-21T09:50:56.327Z,0.95
2022-09-21T09:53:25.021Z,1.23
2022-09-21T09:55:53.489Z,1.48
2022-09-21T09:58:39.306Z,1.52
2022-09-21T10:04:07.176Z,1.38
2022-09-21T10:06:34.676Z,1.90
2022-09-21T10:11:47.339Z,1.70
2022-09-21T10:14:23.546Z,1.75
2022-09-21T10:16:52.580Z,1.60
2022-09-21T10:19:24.754Z,1.10
2022-09-21T10:24:42.599Z,1.50
2022-09-21T10:27:14.013Z,1.50
2022-09-21T10:29:42.735Z,1.33
2022-09-21T10:32:14.784Z,2.03
2022-09-21T10:37:46.197Z,1.40
2022-09-21T10:40:22.781Z,2.08
2022-09-21T10:42:51.255Z,1.05
2022-09-21T10:45:30.636Z,1.38
2022-09-21T10:47:57.669Z,1.13
2022-09-21T10:50:37.866Z,1.20
2022-09-21T10:53:11.069Z,1.05
2022-09-21T10:56:15.972Z,1.10
2022-09-21T10:59:21.917Z,1.00
2022-09-21T11:01:53.797Z,1.13
2022-09-21T11:04:45.232Z,1.10
2022-09-21T11:07:22.754Z,1.23
2022-09-21T11:10:12.297Z,1.10
2022-09-21T11:12:51.002Z,0.77
2022-09-21T11:15:23.792Z,1.10
2022-09-21T11:18:15.438Z,0.90
2022-09-21T11:20:54.987Z,1.27
2022-09-21T11:23:38.855Z,0.88
2022-09-21T11:26:10.898Z,1.33
2022-09-21T11:28:47.224Z,0.70
2022-09-21T11:31:45.361Z,1.10
2022-09-21T11:34:47.180Z,0.88
2022-09-21T11:37:20.321Z,1.40
2022-09-21T11:39:50.668Z,1.02
2022-09-21T11:42:26.090Z,0.90
2022-09-21T11:44:56.072Z,0.95
2022-09-21T11:47:50.511Z,1.00
2022-09-21T11:54:00.112Z,1.20
2022-09-21T11:56:49.579Z,1.30
2022-09-21T11:59:25.566Z,1.10
2022-09-21T12:02:00.419Z,1.13
2022-09-21T12:04:42.194Z,0.90
2022-09-21T12:07:34.461Z,1.10
2022-09-21T12:10:13.476Z,1.38
2022-09-21T12:12:43.637Z,1.25
2022-09-21T12:15:33.337Z,1.23
2022-09-21T12:18:18.717Z,1.38
2022-09-21T12:20:48.602Z,1.73
2022-09-21T12:23:23.511Z,1.30
2022-09-21T12:25:53.466Z,1.75
2022-09-21T12:28:29.027Z,1.50
2022-09-21T12:31:00.779Z,1.20
2022-09-21T12:33:37.947Z,1.60
2022-09-21T12:36:27.607Z,1.27
2022-09-21T12:39:08.401Z,1.63
2022-09-21T12:42:05.780Z,1.30
2022-09-21T12:44:33.933Z,1.58
2022-09-21T12:47:09.791Z,1.25
2022-09-21T12:49:45.040Z,1.10
2022-09-21T12:52:21.652Z,1.05
2022-09-21T12:55:00.492Z,1.13
2022-09-21T12:58:04.436Z,0.93
2022-09-21T13:00:46.510Z,1.00
2022-09-21T13:03:44.083Z,1.20
2022-09-21T13:06:47.008Z,1.02
2022-09-21T13:09:15.559Z,1.00
2022-09-21T13:11:52.724Z,1.02
2022-09-21T13:14:19.708Z,0.73
2022-09-21T13:16:46.674Z,0.80
2022-09-21T13:19:13.575Z,0.77
2022-09-21T13:21:40.723Z,0.60
2022-09-21T13:24:13.897Z,0.90
2022-09-21T13:26:44.747Z,0.80
2022-09-21T13:29:17.793Z,0.98
2022-09-21T13:32:24.032Z,0.80
2022-09-21T13:34:51.691Z,0.90
2022-09-21T13:37:18.586Z,0.60
2022-09-21T13:40:04.319Z,0.60
2022-09-21T13:42:37.547Z,0.80
2022-09-21T13:45:13.870Z,0.70
2022-09-21T13:47:47.630Z,0.43
2022-09-21T13:50:33.617Z,0.55
2022-09-21T13:53:02.719Z,0.60
2022-09-21T13:55:33.993Z,0.90
2022-09-21T13:58:04.899Z,0.65
2022-09-21T14:00:42.105Z,0.80
2022-09-21T14:03:22.646Z,0.70
2022-09-21T14:05:52.208Z,0.77
2022-09-21T14:08:26.400Z,0.70
2022-09-21T14:10:56.311Z,0.82
2022-09-21T14:13:32.678Z,0.70
2022-09-21T14:16:51.212Z,1.10
2022-09-21T14:19:18.616Z,0.90
2022-09-21T14:22:03.969Z,1.10
2022-09-21T14:24:51.073Z,1.20
2022-09-21T14:27:26.807Z,1.92
2022-09-21T14:30:06.291Z,1.02
2022-09-21T14:32:50.851Z,1.25
2022-09-21T14:35:24.643Z,0.90
2022-09-21T14:38:34.233Z,0.80
2022-09-21T14:41:03.859Z,0.82
2022-09-21T14:43:36.502Z,0.70
2022-09-21T14:46:30.992Z,1.17
2022-09-21T14:49:20.167Z,0.70
2022-09-21T14:52:04.279Z,0.70
2022-09-21T14:54:45.537Z,0.68
2022-09-21T14:57:24.699Z,1.00
2022-09-21T15:00:04.942Z,1.48
2022-09-21T15:02:34.769Z,1.70
2022-09-21T15:05:28.626Z,1.23
2022-09-21T15:08:35.421Z,0.75
2022-09-21T15:11:26.531Z,0.73
2022-09-21T15:14:22.822Z,1.10
2022-09-21T15:16:51.892Z,0.82
2022-09-21T15:19:18.990Z,0.98
2022-09-21T15:21:56.046Z,4.95
2022-09-21T15:24:56.367Z,7.38
2022-09-21T15:27:32.196Z,5.18
2022-09-21T15:30:37.684Z,3.10
2022-09-21T15:33:08.044Z,1.48
2022-09-21T15:35:38.131Z,1.52
2022-09-21T15:38:25.892Z,1.73
2022-09-21T15:40:52.978Z,1.95
2022-09-21T15:43:21.058Z,2.33
2022-09-21T15:45:58.076Z,1.77
2022-09-21T15:48:38.722Z,1.70
2022-09-21T15:51:19.493Z,2.20
2022-09-21T15:54:34.667Z,7.63
2022-09-21T16:24:25.170Z,1.85
2022-09-21T16:27:42.244Z,1.98
2022-09-21T16:37:51.468Z,3.08
2022-09-21T16:40:22.732Z,2.85
2022-09-21T16:42:52.981Z,2.22
2022-09-21T16:45:38.902Z,2.47
2022-09-21T16:48:08.210Z,2.65
2022-09-21T16:53:26.757Z,3.75
2022-09-21T16:55:57.336Z,3.83
2022-09-21T17:01:11.633Z,4.07
2022-09-21T17:03:42.254Z,3.85
2022-09-21T17:06:22.586Z,3.85
2022-09-21T17:08:50.223Z,3.60
2022-09-21T17:11:30.001Z,2.97
2022-09-21T17:14:10.025Z,3.08
2022-09-21T17:16:48.052Z,3.83
2022-09-21T17:56:53.498Z,5.57
2022-09-21T17:59:41.184Z,7.30
2022-09-21T18:02:47.963Z,5.80
2022-09-21T18:05:29.782Z,4.93
2022-09-21T18:08:23.154Z,3.55
2022-09-21T18:34:07.695Z,7.70
2022-09-21T18:39:41.577Z,7.03
2022-09-21T18:42:26.891Z,8.40
2022-09-21T18:45:05.397Z,8.07
2022-09-21T18:47:44.649Z,19.52
2022-09-21T19:08:03.908Z,6.60
2022-09-21T19:10:59.267Z,5.40
2022-09-21T19:14:33.947Z,4.72
2022-09-21T19:17:19.087Z,5.68
2022-09-21T19:20:30.979Z,5.05
2022-09-21T19:33:03.293Z,4.72
2022-09-21T21:22:22.688Z,4.10
2022-09-21T21:24:50.671Z,4.53
2022-09-21T21:27:22.446Z,3.80
2022-09-21T21:29:53.586Z,3.92
2022-09-21T21:32:25.700Z,4.50
2022-09-21T21:34:55.313Z,3.15
2022-09-21T21:37:29.571Z,3.78
2022-09-21T21:56:58.469Z,6.30
2022-09-21T21:59:26.492Z,5.90
2022-09-21T22:02:05.383Z,4.82
2022-09-21T22:04:41.154Z,4.18
2022-09-21T22:07:26.525Z,3.75
2022-09-21T22:09:57.048Z,3.35
2022-09-21T22:12:28.417Z,3.15
2022-09-21T22:15:03.889Z,2.50
2022-09-21T22:17:35.567Z,3.33
2022-09-21T22:20:07.292Z,3.63
2022-09-21T22:22:41.792Z,3.17
2022-09-21T22:25:12.678Z,2.70
2022-09-21T22:27:43.483Z,2.70
2022-09-21T22:30:17.012Z,2.83
2022-09-21T22:32:49.037Z,3.03
2022-09-21T22:35:21.110Z,2.97
2022-09-21T22:37:55.769Z,4.03
2022-09-21T22:40:29.723Z,4.25
2022-09-21T22:43:03.965Z,3.08
2022-09-21T22:45:38.468Z,2.55
2022-09-21T22:48:10.798Z,2.15
2022-09-21T22:50:42.438Z,2.95
2022-09-21T22:53:21.604Z,3.05
2022-09-21T22:55:58.557Z,4.72
2022-09-21T23:04:19.192Z,4.45
2022-09-21T23:06:49.789Z,5.70
2022-09-21T23:09:18.922Z,6.00
2022-09-21T23:11:49.505Z,4.18
2022-09-21T23:14:17.562Z,4.43
2022-09-21T23:16:44.973Z,4.68
2022-09-21T23:19:21.575Z,5.05
2022-09-21T23:21:50.307Z,3.60
2022-09-21T23:24:18.613Z,2.80
2022-09-21T23:26:45.871Z,2.80
2022-09-21T23:29:16.029Z,3.10
2022-09-21T23:31:46.609Z,3.53
2022-09-21T23:34:14.936Z,2.08
2022-09-21T23:36:42.648Z,2.55
2022-09-21T23:39:12.017Z,1.98
2022-09-21T23:41:39.343Z,2.40
2022-09-21T23:44:06.982Z,3.53
2022-09-21T23:46:36.267Z,2.53
2022-09-21T23:49:04.032Z,2.63
2022-09-21T23:51:31.362Z,3.08
2022-09-21T23:53:58.724Z,2.10
2022-09-21T23:56:25.870Z,2.08
2022-09-21T23:58:56.609Z,2.05
